createdAt,value
2023-01-07T00:00:43.072Z,10.01
2023-01-07T00:03:04.597Z,10.00
2023-01-07T00:05:26.035Z,9.95
2023-01-07T00:07:47.459Z,10.10
2023-01-07T00:10:09.005Z,10.07
2023-01-07T00:12:30.444Z,9.97
2023-01-07T00:14:51.872Z,9.94
2023-01-07T00:17:13.293Z,9.97
2023-01-07T00:19:34.723Z,10.03
2023-01-07T00:21:56.139Z,9.98
2023-01-07T00:24:18.459Z,9.94
2023-01-07T00:26:40.723Z,9.99
2023-01-07T00:29:03.382Z,10.07
2023-01-07T00:31:33.161Z,10.35
2023-01-07T00:33:55.023Z,10.41
2023-01-07T00:36:16.477Z,10.51
2023-01-07T00:38:38.378Z,10.60
2023-01-07T00:40:59.802Z,10.64
2023-01-07T00:43:21.479Z,10.80
2023-01-07T00:45:43.934Z,10.77
2023-01-07T00:48:05.621Z,10.77
2023-01-07T00:50:29.828Z,10.93
2023-01-07T00:52:51.351Z,11.02
2023-01-07T00:55:14.942Z,10.90
2023-01-07T00:57:36.441Z,10.69
2023-01-07T00:59:57.884Z,10.64
2023-01-07T01:02:19.469Z,10.76
2023-01-07T01:04:40.945Z,11.03
2023-01-07T01:07:02.463Z,10.99
2023-01-07T01:09:25.381Z,10.89
2023-01-07T01:11:46.834Z,10.68
2023-01-07T01:14:10.627Z,10.63
2023-01-07T01:16:32.074Z,10.63
2023-01-07T01:18:53.504Z,10.65
2023-01-07T01:21:17.200Z,10.69
2023-01-07T01:23:39.124Z,10.60
2023-01-07T01:26:10.386Z,10.52
2023-01-07T01:28:32.594Z,10.57
2023-01-07T01:30:56.899Z,10.36
2023-01-07T01:33:18.324Z,10.45
2023-01-07T01:35:41.090Z,10.62
2023-01-07T01:38:02.499Z,10.64
2023-01-07T01:40:28.914Z,10.55
2023-01-07T01:42:50.328Z,10.51
2023-01-07T01:45:12.196Z,10.54
2023-01-07T01:47:49.009Z,10.51
2023-01-07T01:50:28.887Z,10.52
2023-01-07T01:53:00.630Z,10.52
2023-01-07T01:55:29.018Z,10.48
2023-01-07T01:57:54.200Z,10.43
2023-01-07T02:00:16.680Z,10.61
2023-01-07T02:02:54.870Z,10.58
2023-01-07T02:05:16.571Z,10.61
2023-01-07T02:07:38.014Z,10.66
2023-01-07T02:10:20.920Z,10.69
2023-01-07T02:13:04.805Z,10.79
2023-01-07T02:15:59.316Z,10.71
2023-01-07T02:18:45.829Z,10.64
2023-01-07T02:21:25.681Z,10.73
2023-01-07T02:24:15.181Z,10.82
2023-01-07T02:27:07.748Z,10.76
2023-01-07T02:30:00.199Z,10.78
2023-01-07T02:32:58.651Z,10.58
2023-01-07T02:35:38.807Z,10.56
2023-01-07T02:38:30.605Z,10.66
2023-01-07T02:41:22.209Z,10.61
2023-01-07T02:44:20.041Z,10.73
2023-01-07T02:46:45.694Z,10.73
2023-01-07T02:49:14.400Z,10.75
2023-01-07T02:51:38.643Z,10.85
2023-01-07T02:54:01.571Z,10.94
2023-01-07T02:56:36.859Z,10.89
2023-01-07T02:59:17.074Z,10.89
2023-01-07T03:02:26.469Z,11.04
2023-01-07T03:05:01.588Z,11.20
2023-01-07T03:08:00.022Z,11.28
2023-01-07T03:10:44.457Z,11.47
2023-01-07T03:13:17.447Z,11.50
2023-01-07T03:15:54.690Z,11.64
2023-01-07T03:18:40.815Z,11.60
2023-01-07T03:21:06.239Z,11.53
2023-01-07T03:23:29.792Z,11.56
2023-01-07T03:25:54.087Z,11.39
2023-01-07T03:28:19.103Z,11.38
2023-01-07T03:30:40.549Z,11.49
2023-01-07T03:33:09.735Z,11.43
2023-01-07T03:35:32.840Z,11.48
2023-01-07T03:37:54.738Z,11.55
2023-01-07T03:40:18.814Z,11.33
2023-01-07T03:42:41.684Z,11.39
2023-01-07T03:45:03.342Z,11.22
2023-01-07T03:47:26.141Z,11.02
2023-01-07T03:49:47.573Z,10.96
2023-01-07T03:52:09.008Z,10.91
2023-01-07T03:54:30.496Z,11.03
2023-01-07T03:56:52.008Z,10.92
2023-01-07T03:59:13.430Z,10.81
2023-01-07T04:01:34.965Z,10.90
2023-01-07T04:03:56.538Z,11.12
2023-01-07T04:06:17.996Z,11.13
2023-01-07T04:08:39.391Z,11.04
2023-01-07T04:11:00.833Z,11.03
2023-01-07T04:13:22.414Z,11.17
2023-01-07T04:15:44.695Z,11.05
2023-01-07T04:18:06.125Z,11.12
2023-01-07T04:20:27.567Z,11.23
2023-01-07T04:22:49.147Z,11.24
2023-01-07T04:25:10.612Z,11.24
2023-01-07T04:27:33.390Z,11.31
2023-01-07T04:29:54.813Z,11.33
2023-01-07T04:32:16.233Z,11.25
2023-01-07T04:34:37.632Z,11.36
2023-01-07T04:36:59.137Z,11.13
2023-01-07T04:39:20.616Z,11.16
2023-01-07T04:41:42.170Z,11.11
2023-01-07T04:44:03.653Z,10.92
2023-01-07T04:46:25.349Z,10.91
2023-01-07T04:48:46.817Z,10.83
2023-01-07T04:51:08.318Z,10.78
2023-01-07T04:53:29.722Z,10.86
2023-01-07T04:55:53.553Z,10.92
2023-01-07T04:58:15.114Z,10.85
2023-01-07T05:00:36.550Z,10.83
2023-01-07T05:02:57.982Z,10.92
2023-01-07T05:05:19.429Z,10.84
2023-01-07T05:07:40.839Z,10.76
2023-01-07T05:10:02.332Z,10.88
2023-01-07T05:12:23.770Z,10.80
2023-01-07T05:14:45.214Z,10.85
2023-01-07T05:17:06.647Z,10.74
2023-01-07T05:19:28.069Z,10.86
2023-01-07T05:21:49.689Z,10.79
2023-01-07T05:24:11.131Z,10.64
2023-01-07T05:26:32.580Z,10.54
2023-01-07T05:28:54.078Z,10.41
2023-01-07T05:31:15.640Z,10.61
2023-01-07T05:33:37.097Z,10.62
2023-01-07T05:35:58.521Z,10.56
2023-01-07T05:38:20.012Z,10.23
2023-01-07T05:40:42.441Z,10.33
2023-01-07T05:43:03.841Z,10.38
2023-01-07T05:45:25.280Z,10.17
2023-01-07T05:47:46.681Z,10.21
2023-01-07T05:50:08.345Z,10.17
2023-01-07T05:52:29.767Z,10.25
2023-01-07T05:54:51.198Z,10.03
2023-01-07T05:57:12.604Z,9.76
2023-01-07T05:59:34.808Z,9.72
2023-01-07T06:01:56.262Z,9.80
2023-01-07T06:04:17.744Z,9.89
2023-01-07T06:06:39.185Z,9.99
2023-01-07T06:09:00.802Z,10.09
2023-01-07T06:11:22.278Z,10.00
2023-01-07T06:13:43.754Z,10.00
2023-01-07T06:16:10.315Z,10.03
2023-01-07T06:18:31.790Z,10.19
2023-01-07T06:20:53.232Z,10.28
2023-01-07T06:23:14.672Z,10.34
2023-01-07T06:25:36.081Z,10.44
2023-01-07T06:27:58.382Z,10.37
2023-01-07T06:30:19.839Z,10.43
2023-01-07T06:32:43.013Z,10.33
2023-01-07T06:35:04.756Z,10.41
2023-01-07T06:37:26.210Z,10.41
2023-01-07T06:39:47.700Z,10.70
2023-01-07T06:42:09.208Z,10.80
2023-01-07T06:44:30.881Z,10.76
2023-01-07T06:46:52.300Z,10.90
2023-01-07T06:49:13.787Z,10.96
2023-01-07T06:51:35.276Z,10.84
2023-01-07T06:53:56.752Z,11.00
2023-01-07T06:56:18.169Z,10.93
2023-01-07T06:58:39.582Z,10.99
2023-01-07T07:01:08.778Z,10.75
2023-01-07T07:03:30.253Z,10.74
2023-01-07T07:05:51.637Z,10.98
2023-01-07T07:08:13.102Z,10.86
2023-01-07T07:10:35.591Z,10.78
2023-01-07T07:12:57.022Z,10.69
2023-01-07T07:15:18.738Z,10.68
2023-01-07T07:17:40.168Z,10.69
2023-01-07T07:20:01.672Z,10.80
2023-01-07T07:22:23.167Z,10.89
2023-01-07T07:24:44.581Z,11.00
2023-01-07T07:27:06.040Z,11.05
2023-01-07T07:29:27.552Z,10.94
2023-01-07T07:31:48.958Z,11.09
2023-01-07T07:34:11.118Z,11.14
2023-01-07T07:36:32.601Z,10.97
2023-01-07T07:38:54.068Z,10.98
2023-01-07T07:41:15.584Z,10.92
2023-01-07T07:43:37.097Z,10.95
2023-01-07T07:45:58.530Z,11.06
2023-01-07T07:48:19.975Z,11.14
2023-01-07T07:50:41.486Z,11.11
2023-01-07T07:53:03.266Z,10.82
2023-01-07T07:55:26.231Z,10.65
2023-01-07T07:57:48.033Z,10.68
2023-01-07T08:00:10.122Z,10.65
2023-01-07T08:02:31.747Z,10.79
2023-01-07T08:04:53.163Z,10.78
2023-01-07T08:07:14.744Z,10.83
2023-01-07T08:09:53.955Z,10.86
2023-01-07T08:12:15.467Z,10.92
2023-01-07T08:14:37.269Z,10.99
2023-01-07T08:16:58.674Z,11.16
2023-01-07T08:19:20.095Z,11.13
2023-01-07T08:21:41.644Z,11.18
2023-01-07T08:24:03.304Z,11.15
2023-01-07T08:26:24.728Z,10.90
2023-01-07T08:28:46.864Z,10.85
2023-01-07T08:31:08.513Z,10.93
2023-01-07T08:33:30.213Z,11.16
2023-01-07T08:35:51.685Z,11.16
2023-01-07T08:38:13.151Z,11.20
2023-01-07T08:40:35.796Z,11.33
2023-01-07T08:43:08.035Z,11.45
2023-01-07T08:45:30.513Z,11.51
2023-01-07T08:47:51.973Z,11.24
2023-01-07T08:50:13.376Z,11.31
2023-01-07T08:52:34.847Z,11.30
2023-01-07T08:54:56.262Z,11.37
2023-01-07T08:57:18.533Z,11.30
2023-01-07T08:59:40.816Z,11.45
2023-01-07T09:02:02.330Z,11.47
2023-01-07T09:04:23.938Z,11.29
2023-01-07T09:06:45.488Z,11.35
2023-01-07T09:09:06.922Z,11.38
2023-01-07T09:11:28.331Z,11.53
2023-01-07T09:13:49.778Z,11.52
2023-01-07T09:16:11.334Z,11.51
2023-01-07T09:18:32.829Z,11.65
2023-01-07T09:20:54.217Z,11.71
2023-01-07T09:23:15.843Z,11.55
2023-01-07T09:25:37.263Z,11.81
2023-01-07T09:27:58.728Z,11.87
2023-01-07T09:30:20.189Z,11.82
2023-01-07T09:32:45.510Z,11.71
2023-01-07T09:35:07.438Z,11.78
2023-01-07T09:37:28.859Z,11.78
2023-01-07T09:39:50.348Z,11.83
2023-01-07T09:42:41.111Z,12.00
2023-01-07T09:45:15.759Z,12.01
2023-01-07T09:47:42.553Z,11.88
2023-01-07T09:50:14.412Z,11.85
2023-01-07T09:52:41.914Z,11.89
2023-01-07T09:55:12.557Z,11.68
2023-01-07T09:57:34.045Z,12.03
2023-01-07T09:59:55.654Z,11.70
2023-01-07T10:02:51.432Z,11.74
2023-01-07T10:05:30.847Z,11.77
2023-01-07T10:08:31.231Z,12.04
2023-01-07T10:11:12.685Z,11.89
2023-01-07T10:13:54.426Z,11.68
2023-01-07T10:16:36.380Z,11.69
2023-01-07T10:19:23.360Z,11.75
2023-01-07T10:21:53.991Z,11.78
2023-01-07T10:24:27.450Z,11.66
2023-01-07T10:26:53.763Z,11.61
2023-01-07T10:29:35.025Z,11.50
2023-01-07T10:32:02.322Z,11.52
2023-01-07T10:34:32.676Z,11.64
2023-01-07T10:37:08.481Z,11.66
2023-01-07T10:39:32.620Z,11.29
2023-01-07T10:42:02.729Z,11.37
2023-01-07T10:44:36.991Z,11.26
2023-01-07T10:47:20.757Z,11.23
2023-01-07T10:50:05.195Z,10.99
2023-01-07T10:52:35.836Z,10.86
2023-01-07T10:55:12.606Z,11.08
2023-01-07T10:57:34.184Z,11.02
2023-01-07T10:59:59.997Z,11.05
2023-01-07T11:02:27.472Z,11.02
2023-01-07T11:04:49.343Z,10.83
2023-01-07T11:07:28.360Z,10.93
2023-01-07T11:09:52.720Z,11.05
2023-01-07T11:12:38.760Z,11.20
2023-01-07T11:15:04.880Z,11.16
2023-01-07T11:17:35.645Z,11.09
2023-01-07T11:19:57.194Z,11.11
2023-01-07T11:22:27.774Z,11.09
2023-01-07T11:24:49.224Z,10.90
2023-01-07T11:27:16.952Z,11.01
2023-01-07T11:29:43.634Z,11.01
2023-01-07T11:32:07.240Z,10.92
2023-01-07T11:34:36.779Z,10.65
2023-01-07T11:36:58.255Z,10.91
2023-01-07T11:39:29.681Z,10.95
2023-01-07T11:41:58.002Z,11.01
2023-01-07T11:44:19.549Z,10.94
2023-01-07T11:46:44.282Z,10.98
2023-01-07T11:49:06.021Z,10.89
2023-01-07T11:51:38.018Z,10.86
2023-01-07T11:54:00.069Z,10.98
2023-01-07T11:56:21.468Z,11.12
2023-01-07T11:58:45.189Z,11.14
2023-01-07T12:01:09.999Z,11.15
2023-01-07T12:03:31.871Z,11.20
2023-01-07T12:05:57.039Z,11.13
2023-01-07T12:08:20.799Z,11.05
2023-01-07T12:10:42.901Z,11.05
2023-01-07T12:13:16.562Z,11.13
2023-01-07T12:15:50.188Z,10.88
2023-01-07T12:18:19.643Z,10.93
2023-01-07T12:21:07.117Z,10.98
2023-01-07T12:23:43.706Z,11.03
2023-01-07T12:26:16.896Z,11.12
2023-01-07T12:29:04.109Z,11.10
2023-01-07T12:31:41.616Z,11.30
2023-01-07T12:34:10.046Z,11.51
2023-01-07T12:37:00.673Z,11.68
2023-01-07T12:39:35.638Z,11.71
2023-01-07T12:42:09.124Z,11.52
2023-01-07T12:44:31.137Z,11.36
2023-01-07T12:47:31.249Z,11.35
2023-01-07T12:50:09.633Z,11.52
2023-01-07T12:52:45.841Z,11.58
2023-01-07T12:55:33.794Z,11.64
2023-01-07T12:58:03.629Z,11.63
2023-01-07T13:00:40.817Z,11.57
2023-01-07T13:03:29.892Z,11.46
2023-01-07T13:06:28.405Z,11.22
2023-01-07T13:09:14.626Z,11.23
2023-01-07T13:12:04.745Z,11.16
2023-01-07T13:14:34.208Z,11.09
2023-01-07T13:17:27.128Z,11.20
2023-01-07T13:19:48.647Z,10.97
2023-01-07T13:22:16.813Z,10.86
2023-01-07T13:25:00.014Z,10.59
2023-01-07T13:27:35.812Z,10.79
2023-01-07T13:30:53.440Z,10.97
2023-01-07T13:33:42.713Z,10.75
2023-01-07T13:36:20.489Z,10.65
2023-01-07T13:38:52.008Z,10.78
2023-01-07T13:41:38.774Z,10.64
2023-01-07T13:44:42.177Z,10.47
2023-01-07T13:47:05.295Z,10.46
2023-01-07T13:49:30.120Z,10.53
2023-01-07T13:51:52.004Z,10.33
2023-01-07T13:54:13.939Z,10.40
2023-01-07T13:56:37.621Z,10.38
2023-01-07T13:59:00.458Z,10.64
2023-01-07T14:01:26.924Z,10.42
2023-01-07T14:03:54.121Z,10.24
2023-01-07T14:06:21.799Z,10.13
2023-01-07T14:08:43.562Z,10.21
2023-01-07T14:11:05.066Z,10.15
2023-01-07T14:13:40.001Z,10.17
2023-01-07T14:16:33.432Z,10.13
2023-01-07T14:19:00.977Z,10.04
2023-01-07T14:21:28.014Z,10.22
2023-01-07T14:23:55.147Z,10.19
2023-01-07T14:26:34.709Z,10.38
2023-01-07T14:29:20.894Z,10.40
2023-01-07T14:31:42.935Z,10.30
2023-01-07T14:34:16.084Z,10.52
2023-01-07T14:37:02.319Z,10.75
2023-01-07T14:39:30.737Z,10.79
2023-01-07T14:42:20.351Z,10.86
2023-01-07T14:44:41.885Z,10.86
2023-01-07T14:47:03.442Z,10.85
2023-01-07T14:49:37.488Z,11.11
2023-01-07T14:52:11.178Z,11.05
2023-01-07T14:54:32.546Z,10.95
2023-01-07T14:56:53.888Z,10.98
2023-01-07T14:59:52.133Z,10.85
2023-01-07T15:02:44.485Z,10.92
2023-01-07T15:05:18.617Z,10.79
2023-01-07T15:07:42.791Z,10.65
2023-01-07T15:10:43.443Z,10.57
2023-01-07T15:13:26.772Z,10.63
2023-01-07T15:16:04.267Z,10.63
2023-01-07T15:18:25.952Z,10.50
2023-01-07T15:20:54.822Z,10.45
2023-01-07T15:23:29.220Z,10.21
2023-01-07T15:26:01.640Z,10.19
2023-01-07T15:28:48.645Z,10.11
2023-01-07T15:31:28.979Z,10.01
2023-01-07T15:34:01.609Z,10.10
2023-01-07T15:36:23.634Z,10.18
2023-01-07T15:38:52.864Z,10.27
2023-01-07T15:41:31.757Z,10.29
2023-01-07T15:43:53.842Z,10.26
2023-01-07T15:46:15.462Z,10.28
2023-01-07T15:48:36.954Z,10.23
2023-01-07T15:51:00.064Z,10.36
2023-01-07T15:53:24.594Z,10.08
2023-01-07T15:55:48.712Z,10.18
2023-01-07T15:58:18.879Z,10.15
2023-01-07T16:00:40.904Z,10.19
2023-01-07T16:03:04.323Z,10.36
2023-01-07T16:05:26.385Z,10.45
2023-01-07T16:07:59.055Z,10.28
2023-01-07T16:10:32.496Z,10.26
2023-01-07T16:13:01.224Z,10.26
2023-01-07T16:15:41.552Z,10.23
2023-01-07T16:18:08.916Z,10.12
2023-01-07T16:20:37.655Z,10.10
2023-01-07T16:23:21.157Z,10.14
2023-01-07T16:25:50.858Z,9.82
2023-01-07T16:28:20.314Z,9.72
2023-01-07T16:30:43.475Z,9.80
2023-01-07T16:33:05.846Z,9.59
2023-01-07T16:35:37.072Z,9.49
2023-01-07T16:38:00.322Z,9.63
2023-01-07T16:40:33.857Z,9.83
2023-01-07T16:42:56.038Z,9.75
2023-01-07T16:45:24.634Z,9.67
2023-01-07T16:48:19.419Z,9.86
2023-01-07T16:50:43.156Z,9.92
2023-01-07T16:53:33.591Z,9.92
2023-01-07T16:56:11.584Z,9.71
2023-01-07T16:58:43.304Z,9.71
2023-01-07T17:01:06.779Z,9.64
2023-01-07T17:03:31.064Z,9.77
2023-01-07T17:06:07.516Z,9.68
2023-01-07T17:08:30.121Z,9.90
2023-01-07T17:11:18.809Z,9.90
2023-01-07T17:13:40.445Z,9.79
2023-01-07T17:16:22.763Z,9.81
2023-01-07T17:18:44.241Z,9.83
2023-01-07T17:21:05.657Z,9.60
2023-01-07T17:23:27.189Z,9.80
2023-01-07T17:25:48.675Z,9.88
2023-01-07T17:28:16.620Z,9.85
2023-01-07T17:30:40.643Z,9.99
2023-01-07T17:33:02.994Z,10.00
2023-01-07T17:35:25.690Z,9.99
2023-01-07T17:37:47.828Z,10.06
2023-01-07T17:40:09.843Z,10.09
2023-01-07T17:42:52.087Z,9.94
2023-01-07T17:45:18.580Z,10.14
2023-01-07T17:47:40.254Z,10.22
2023-01-07T17:50:01.774Z,10.27
2023-01-07T17:52:23.273Z,10.18
2023-01-07T17:54:44.877Z,10.05
2023-01-07T17:57:06.316Z,10.18
2023-01-07T17:59:28.752Z,10.23
2023-01-07T18:01:53.144Z,10.19
2023-01-07T18:04:14.785Z,10.06
2023-01-07T18:06:37.930Z,10.01
2023-01-07T18:08:59.356Z,10.01
2023-01-07T18:11:43.096Z,10.14
2023-01-07T18:14:05.066Z,10.04
2023-01-07T18:16:27.315Z,10.05
2023-01-07T18:18:48.767Z,10.29
2023-01-07T18:21:11.467Z,10.24
2023-01-07T18:23:32.872Z,9.99
2023-01-07T18:25:54.961Z,10.17
2023-01-07T18:28:16.618Z,10.25
2023-01-07T18:30:39.018Z,10.18
2023-01-07T18:33:00.438Z,10.22
2023-01-07T18:35:24.960Z,10.14
2023-01-07T18:37:50.817Z,10.25
2023-01-07T18:40:12.227Z,10.26
2023-01-07T18:42:34.871Z,10.28
2023-01-07T18:44:56.283Z,10.23
2023-01-07T18:47:17.706Z,10.34
2023-01-07T18:49:39.106Z,10.19
2023-01-07T18:52:00.843Z,10.09
2023-01-07T18:54:22.296Z,9.86
2023-01-07T18:56:45.773Z,10.00
2023-01-07T18:59:07.641Z,10.00
2023-01-07T19:01:29.215Z,9.99
2023-01-07T19:03:50.709Z,10.13
2023-01-07T19:06:12.642Z,10.14
2023-01-07T19:08:34.270Z,9.97
2023-01-07T19:10:55.675Z,9.92
2023-01-07T19:13:17.153Z,9.60
2023-01-07T19:15:40.061Z,9.53
2023-01-07T19:18:01.463Z,9.49
2023-01-07T19:20:22.874Z,9.53
2023-01-07T19:22:44.283Z,9.34
2023-01-07T19:25:06.330Z,9.54
2023-01-07T19:27:27.841Z,9.52
2023-01-07T19:29:49.340Z,9.42
2023-01-07T19:32:10.858Z,9.37
2023-01-07T19:34:32.304Z,9.30
2023-01-07T19:36:53.742Z,9.49
2023-01-07T19:39:20.813Z,9.39
2023-01-07T19:41:42.945Z,9.54
2023-01-07T19:44:04.412Z,9.44
2023-01-07T19:46:26.680Z,9.26
2023-01-07T19:48:48.168Z,9.32
2023-01-07T19:51:10.932Z,9.26
2023-01-07T19:53:33.654Z,8.88
2023-01-07T19:56:08.299Z,8.92
2023-01-07T19:58:30.025Z,8.99
2023-01-07T20:00:51.561Z,8.79
2023-01-07T20:03:13.130Z,9.01
2023-01-07T20:05:34.556Z,8.99
2023-01-07T20:07:56.082Z,8.98
2023-01-07T20:10:17.531Z,9.02
2023-01-07T20:12:39.230Z,9.15
2023-01-07T20:15:00.672Z,9.23
2023-01-07T20:17:22.105Z,9.27
2023-01-07T20:19:44.845Z,9.19
2023-01-07T20:22:06.288Z,9.07
2023-01-07T20:24:27.742Z,9.08
2023-01-07T20:26:49.229Z,9.05
2023-01-07T20:29:10.664Z,8.98
2023-01-07T20:31:32.161Z,9.06
2023-01-07T20:33:55.821Z,9.09
2023-01-07T20:36:23.751Z,9.15
2023-01-07T20:38:46.775Z,9.04
2023-01-07T20:41:12.106Z,9.25
2023-01-07T20:43:35.041Z,9.09
2023-01-07T20:45:59.644Z,8.98
2023-01-07T20:48:21.103Z,9.02
2023-01-07T20:50:43.070Z,9.11
2023-01-07T20:53:04.595Z,9.14
2023-01-07T20:55:26.065Z,9.19
2023-01-07T20:57:47.478Z,9.18
2023-01-07T21:00:09.713Z,9.15
2023-01-07T21:02:31.245Z,9.15
2023-01-07T21:04:52.757Z,9.16
2023-01-07T21:07:14.155Z,9.15
2023-01-07T21:09:35.853Z,8.93
2023-01-07T21:11:57.303Z,8.74
2023-01-07T21:14:18.778Z,8.82
2023-01-07T21:16:40.303Z,8.76
2023-01-07T21:19:01.812Z,8.90
2023-01-07T21:21:25.135Z,8.76
2023-01-07T21:23:47.815Z,8.67
2023-01-07T21:26:10.208Z,8.60
2023-01-07T21:28:31.771Z,8.68
2023-01-07T21:30:53.203Z,8.62
2023-01-07T21:33:15.735Z,8.60
2023-01-07T21:35:41.119Z,8.67
2023-01-07T21:38:02.626Z,8.81
2023-01-07T21:40:24.123Z,8.75
2023-01-07T21:42:45.531Z,8.70
2023-01-07T21:45:07.419Z,8.90
2023-01-07T21:47:29.938Z,8.84
2023-01-07T21:49:51.657Z,8.92
2023-01-07T21:52:13.174Z,8.80
2023-01-07T21:54:35.136Z,8.78
2023-01-07T21:56:56.542Z,8.77
2023-01-07T21:59:17.984Z,8.71
2023-01-07T22:01:39.504Z,8.79
2023-01-07T22:04:01.445Z,9.01
2023-01-07T22:06:25.744Z,9.00
2023-01-07T22:08:48.333Z,9.15
2023-01-07T22:11:14.663Z,9.36
2023-01-07T22:13:36.085Z,9.43
2023-01-07T22:15:57.582Z,9.54
2023-01-07T22:18:19.047Z,9.62
2023-01-07T22:20:41.648Z,9.46
2023-01-07T22:23:03.061Z,9.40
2023-01-07T22:25:24.528Z,9.40
2023-01-07T22:27:45.929Z,9.49
2023-01-07T22:30:09.022Z,9.39
2023-01-07T22:32:30.464Z,9.35
2023-01-07T22:34:51.876Z,9.16
2023-01-07T22:37:17.548Z,9.19
2023-01-07T22:39:43.854Z,9.25
2023-01-07T22:42:14.374Z,9.35
2023-01-07T22:44:46.704Z,9.45
2023-01-07T22:47:10.977Z,9.33
2023-01-07T22:49:33.201Z,9.40
2023-01-07T22:51:54.940Z,9.46
2023-01-07T22:54:17.271Z,9.37
2023-01-07T22:56:39.297Z,9.28
2023-01-07T22:59:00.857Z,9.43
2023-01-07T23:01:22.289Z,9.44
2023-01-07T23:03:45.845Z,9.50
2023-01-07T23:06:08.590Z,9.64
2023-01-07T23:08:30.139Z,9.54
2023-01-07T23:10:51.549Z,9.54
2023-01-07T23:13:12.980Z,9.38
2023-01-07T23:15:35.008Z,9.36
2023-01-07T23:17:56.512Z,9.36
2023-01-07T23:20:17.939Z,9.31
2023-01-07T23:22:39.357Z,9.52
2023-01-07T23:25:00.793Z,9.67
2023-01-07T23:27:22.200Z,9.72
2023-01-07T23:29:43.735Z,9.84
2023-01-07T23:32:05.542Z,9.93
2023-01-07T23:34:27.028Z,9.85
2023-01-07T23:36:48.449Z,9.95
2023-01-07T23:39:09.893Z,9.86
2023-01-07T23:41:32.433Z,9.83
2023-01-07T23:43:53.871Z,9.63
2023-01-07T23:46:15.688Z,9.58
2023-01-07T23:48:38.212Z,9.72
2023-01-07T23:51:08.568Z,9.82
2023-01-07T23:53:30.005Z,9.78
2023-01-07T23:55:56.590Z,9.93
2023-01-07T23:58:18.626Z,10.10
